sensor_id;sensor_type;location;lat;lon;timestamp;P1;durP1;ratioP1;P2;durP2;ratioP2
68995;SDS011;56056;48.990;12.146;2023-03-15T00:02:01;223.55;;;213.85;;
68995;SDS011;56056;48.990;12.146;2023-03-15T00:04:27;263.73;;;252.43;;
68995;SDS011;56056;48.990;12.146;2023-03-15T00:06:53;301.25;;;287.75;;
68995;SDS011;56056;48.990;12.146;2023-03-15T00:09:20;203.18;;;194.25;;
68995;SDS011;56056;48.990;12.146;2023-03-15T00:11:46;258.10;;;247.43;;
68995;SDS011;56056;48.990;12.146;2023-03-15T00:14:12;395.70;;;377.58;;
68995;SDS011;56056;48.990;12.146;2023-03-15T00:16:37;296.23;;;282.48;;
68995;SDS011;56056;48.990;12.146;2023-03-15T00:19:03;212.50;;;202.98;;
68995;SDS011;56056;48.990;12.146;2023-03-15T00:21:28;247.90;;;237.23;;
68995;SDS011;56056;48.990;12.146;2023-03-15T00:23:54;215.13;;;205.95;;
68995;SDS011;56056;48.990;12.146;2023-03-15T00:26:21;217.93;;;208.45;;
68995;SDS011;56056;48.990;12.146;2023-03-15T00:28:47;310.27;;;297.08;;
68995;SDS011;56056;48.990;12.146;2023-03-15T00:31:13;235.43;;;225.30;;
68995;SDS011;56056;48.990;12.146;2023-03-15T00:33:40;217.20;;;208.40;;
68995;SDS011;56056;48.990;12.146;2023-03-15T00:36:07;247.25;;;236.63;;
68995;SDS011;56056;48.990;12.146;2023-03-15T00:38:33;369.70;;;353.70;;
68995;SDS011;56056;48.990;12.146;2023-03-15T00:41:03;489.27;;;467.48;;
68995;SDS011;56056;48.990;12.146;2023-03-15T00:43:30;363.67;;;347.30;;
68995;SDS011;56056;48.990;12.146;2023-03-15T00:45:56;187.20;;;179.45;;
68995;SDS011;56056;48.990;12.146;2023-03-15T00:48:22;536.40;;;513.35;;
68995;SDS011;56056;48.990;12.146;2023-03-15T00:50:48;211.98;;;202.77;;
68995;SDS011;56056;48.990;12.146;2023-03-15T00:53:13;390.50;;;374.10;;
68995;SDS011;56056;48.990;12.146;2023-03-15T00:55:39;211.60;;;202.20;;
68995;SDS011;56056;48.990;12.146;2023-03-15T00:58:04;244.63;;;233.43;;
68995;SDS011;56056;48.990;12.146;2023-03-15T01:00:31;329.52;;;314.80;;
68995;SDS011;56056;48.990;12.146;2023-03-15T01:02:57;189.02;;;180.88;;
68995;SDS011;56056;48.990;12.146;2023-03-15T01:05:23;239.68;;;229.82;;
68995;SDS011;56056;48.990;12.146;2023-03-15T01:07:50;174.38;;;167.00;;
68995;SDS011;56056;48.990;12.146;2023-03-15T01:10:16;677.80;;;623.55;;
68995;SDS011;56056;48.990;12.146;2023-03-15T01:12:42;600.65;;;568.35;;
68995;SDS011;56056;48.990;12.146;2023-03-15T01:15:10;179.98;;;172.02;;
68995;SDS011;56056;48.990;12.146;2023-03-15T01:17:38;300.73;;;288.75;;
68995;SDS011;56056;48.990;12.146;2023-03-15T01:20:04;489.58;;;465.33;;
68995;SDS011;56056;48.990;12.146;2023-03-15T01:22:31;237.02;;;222.18;;
68995;SDS011;56056;48.990;12.146;2023-03-15T01:24:57;192.30;;;184.40;;
68995;SDS011;56056;48.990;12.146;2023-03-15T01:27:23;408.70;;;392.25;;
68995;SDS011;56056;48.990;12.146;2023-03-15T01:29:48;117.80;;;112.57;;
68995;SDS011;56056;48.990;12.146;2023-03-15T01:32:14;117.28;;;111.90;;
68995;SDS011;56056;48.990;12.146;2023-03-15T01:34:41;92.53;;;88.20;;
68995;SDS011;56056;48.990;12.146;2023-03-15T01:37:07;148.68;;;142.63;;
68995;SDS011;56056;48.990;12.146;2023-03-15T01:39:33;106.20;;;101.60;;
68995;SDS011;56056;48.990;12.146;2023-03-15T01:41:58;98.95;;;94.72;;
68995;SDS011;56056;48.990;12.146;2023-03-15T01:44:44;259.40;;;247.50;;
68995;SDS011;56056;48.990;12.146;2023-03-15T01:47:13;159.70;;;153.10;;
68995;SDS011;56056;48.990;12.146;2023-03-15T01:49:39;66.03;;;63.10;;
68995;SDS011;56056;48.990;12.146;2023-03-15T01:52:07;32.17;;;30.77;;
68995;SDS011;56056;48.990;12.146;2023-03-15T01:54:35;31.75;;;30.42;;
68995;SDS011;56056;48.990;12.146;2023-03-15T01:57:04;23.65;;;22.60;;
68995;SDS011;56056;48.990;12.146;2023-03-15T01:59:32;400.08;;;383.40;;
68995;SDS011;56056;48.990;12.146;2023-03-15T02:02:00;313.45;;;300.10;;
68995;SDS011;56056;48.990;12.146;2023-03-15T02:04:28;63.92;;;61.17;;
68995;SDS011;56056;48.990;12.146;2023-03-15T02:06:57;412.17;;;395.00;;
68995;SDS011;56056;48.990;12.146;2023-03-15T02:09:29;34.08;;;32.63;;
68995;SDS011;56056;48.990;12.146;2023-03-15T02:11:59;41.97;;;40.15;;
68995;SDS011;56056;48.990;12.146;2023-03-15T02:14:24;54.63;;;52.20;;
68995;SDS011;56056;48.990;12.146;2023-03-15T02:16:50;49.40;;;47.30;;
68995;SDS011;56056;48.990;12.146;2023-03-15T02:19:20;42.85;;;40.92;;
68995;SDS011;56056;48.990;12.146;2023-03-15T02:21:55;41.63;;;39.78;;
68995;SDS011;56056;48.990;12.146;2023-03-15T02:24:28;27.42;;;26.27;;
68995;SDS011;56056;48.990;12.146;2023-03-15T02:26:57;99.97;;;95.53;;
68995;SDS011;56056;48.990;12.146;2023-03-15T02:29:24;79.15;;;75.78;;
68995;SDS011;56056;48.990;12.146;2023-03-15T02:31:51;284.02;;;271.80;;
68995;SDS011;56056;48.990;12.146;2023-03-15T02:34:17;98.53;;;94.35;;
68995;SDS011;56056;48.990;12.146;2023-03-15T02:36:43;251.35;;;240.23;;
68995;SDS011;56056;48.990;12.146;2023-03-15T02:39:13;282.40;;;270.63;;
68995;SDS011;56056;48.990;12.146;2023-03-15T02:41:40;258.90;;;248.00;;
68995;SDS011;56056;48.990;12.146;2023-03-15T02:44:09;74.88;;;71.65;;
68995;SDS011;56056;48.990;12.146;2023-03-15T02:46:38;313.73;;;300.10;;
68995;SDS011;56056;48.990;12.146;2023-03-15T02:49:04;88.97;;;85.03;;
68995;SDS011;56056;48.990;12.146;2023-03-15T02:51:31;90.78;;;87.05;;
68995;SDS011;56056;48.990;12.146;2023-03-15T02:53:57;100.30;;;95.80;;
68995;SDS011;56056;48.990;12.146;2023-03-15T02:56:23;229.43;;;217.52;;
68995;SDS011;56056;48.990;12.146;2023-03-15T02:58:49;131.07;;;125.32;;
68995;SDS011;56056;48.990;12.146;2023-03-15T03:01:15;81.30;;;77.75;;
68995;SDS011;56056;48.990;12.146;2023-03-15T03:03:43;85.30;;;81.50;;
68995;SDS011;56056;48.990;12.146;2023-03-15T03:06:10;273.40;;;262.17;;
68995;SDS011;56056;48.990;12.146;2023-03-15T03:08:36;74.63;;;71.13;;
68995;SDS011;56056;48.990;12.146;2023-03-15T03:11:02;141.68;;;135.45;;
68995;SDS011;56056;48.990;12.146;2023-03-15T03:13:29;442.08;;;420.58;;
68995;SDS011;56056;48.990;12.146;2023-03-15T03:15:54;79.53;;;76.22;;
68995;SDS011;56056;48.990;12.146;2023-03-15T03:18:23;121.45;;;112.60;;
68995;SDS011;56056;48.990;12.146;2023-03-15T03:20:50;190.43;;;182.77;;
68995;SDS011;56056;48.990;12.146;2023-03-15T03:23:16;136.38;;;130.75;;
68995;SDS011;56056;48.990;12.146;2023-03-15T03:25:41;80.68;;;77.32;;
68995;SDS011;56056;48.990;12.146;2023-03-15T03:28:09;114.35;;;109.43;;
68995;SDS011;56056;48.990;12.146;2023-03-15T03:30:35;260.07;;;249.23;;
68995;SDS011;56056;48.990;12.146;2023-03-15T03:33:00;128.80;;;122.97;;
68995;SDS011;56056;48.990;12.146;2023-03-15T03:35:26;272.92;;;260.73;;
68995;SDS011;56056;48.990;12.146;2023-03-15T03:37:53;111.25;;;106.35;;
68995;SDS011;56056;48.990;12.146;2023-03-15T03:40:19;80.32;;;76.97;;
68995;SDS011;56056;48.990;12.146;2023-03-15T03:42:45;137.13;;;131.35;;
68995;SDS011;56056;48.990;12.146;2023-03-15T03:45:10;105.20;;;100.65;;
68995;SDS011;56056;48.990;12.146;2023-03-15T03:47:36;113.93;;;108.97;;
68995;SDS011;56056;48.990;12.146;2023-03-15T03:50:02;320.98;;;307.40;;
68995;SDS011;56056;48.990;12.146;2023-03-15T03:52:28;118.30;;;112.65;;
68995;SDS011;56056;48.990;12.146;2023-03-15T03:54:55;177.68;;;170.07;;
68995;SDS011;56056;48.990;12.146;2023-03-15T03:57:20;75.88;;;72.43;;
68995;SDS011;56056;48.990;12.146;2023-03-15T03:59:46;63.67;;;60.90;;
68995;SDS011;56056;48.990;12.146;2023-03-15T04:02:12;68.60;;;65.88;;
68995;SDS011;56056;48.990;12.146;2023-03-15T04:04:37;113.35;;;107.63;;
68995;SDS011;56056;48.990;12.146;2023-03-15T04:07:05;216.82;;;208.00;;
68995;SDS011;56056;48.990;12.146;2023-03-15T04:09:31;80.72;;;76.93;;
68995;SDS011;56056;48.990;12.146;2023-03-15T04:12:02;86.25;;;82.30;;
68995;SDS011;56056;48.990;12.146;2023-03-15T04:14:29;139.10;;;133.13;;
68995;SDS011;56056;48.990;12.146;2023-03-15T04:16:54;89.07;;;84.90;;
68995;SDS011;56056;48.990;12.146;2023-03-15T04:19:20;74.55;;;71.25;;
68995;SDS011;56056;48.990;12.146;2023-03-15T04:21:46;215.35;;;206.57;;
68995;SDS011;56056;48.990;12.146;2023-03-15T04:24:12;106.90;;;102.38;;
68995;SDS011;56056;48.990;12.146;2023-03-15T04:26:38;91.43;;;87.10;;
68995;SDS011;56056;48.990;12.146;2023-03-15T04:29:07;75.43;;;71.45;;
68995;SDS011;56056;48.990;12.146;2023-03-15T04:31:33;157.43;;;150.82;;
68995;SDS011;56056;48.990;12.146;2023-03-15T04:34:02;133.63;;;127.80;;
68995;SDS011;56056;48.990;12.146;2023-03-15T04:36:28;118.13;;;112.68;;
68995;SDS011;56056;48.990;12.146;2023-03-15T04:38:54;81.30;;;77.60;;
68995;SDS011;56056;48.990;12.146;2023-03-15T04:41:30;71.20;;;67.90;;
68995;SDS011;56056;48.990;12.146;2023-03-15T04:43:56;89.80;;;85.97;;
68995;SDS011;56056;48.990;12.146;2023-03-15T04:46:23;81.43;;;78.00;;
68995;SDS011;56056;48.990;12.146;2023-03-15T04:48:48;85.45;;;81.60;;
68995;SDS011;56056;48.990;12.146;2023-03-15T04:51:15;77.15;;;73.65;;
68995;SDS011;56056;48.990;12.146;2023-03-15T04:53:40;146.32;;;139.98;;
68995;SDS011;56056;48.990;12.146;2023-03-15T04:56:06;101.38;;;96.90;;
68995;SDS011;56056;48.990;12.146;2023-03-15T04:58:32;95.07;;;91.13;;
68995;SDS011;56056;48.990;12.146;2023-03-15T05:00:57;107.25;;;102.50;;
68995;SDS011;56056;48.990;12.146;2023-03-15T05:03:24;109.00;;;104.30;;
68995;SDS011;56056;48.990;12.146;2023-03-15T05:05:50;75.30;;;72.05;;
68995;SDS011;56056;48.990;12.146;2023-03-15T05:08:16;218.82;;;209.52;;
68995;SDS011;56056;48.990;12.146;2023-03-15T05:10:41;225.05;;;215.93;;
68995;SDS011;56056;48.990;12.146;2023-03-15T05:13:07;156.65;;;149.90;;
68995;SDS011;56056;48.990;12.146;2023-03-15T05:15:33;198.70;;;190.50;;
68995;SDS011;56056;48.990;12.146;2023-03-15T05:17:58;134.05;;;128.15;;
68995;SDS011;56056;48.990;12.146;2023-03-15T05:20:25;118.90;;;113.80;;
68995;SDS011;56056;48.990;12.146;2023-03-15T05:22:51;109.00;;;104.38;;
68995;SDS011;56056;48.990;12.146;2023-03-15T05:25:19;119.43;;;114.28;;
68995;SDS011;56056;48.990;12.146;2023-03-15T05:27:45;108.80;;;104.28;;
68995;SDS011;56056;48.990;12.146;2023-03-15T05:30:11;290.05;;;276.83;;
68995;SDS011;56056;48.990;12.146;2023-03-15T05:32:41;113.35;;;108.47;;
68995;SDS011;56056;48.990;12.146;2023-03-15T05:35:08;133.77;;;128.20;;
68995;SDS011;56056;48.990;12.146;2023-03-15T05:37:36;118.00;;;112.68;;
68995;SDS011;56056;48.990;12.146;2023-03-15T05:40:02;308.48;;;295.13;;
68995;SDS011;56056;48.990;12.146;2023-03-15T05:42:32;287.02;;;275.02;;
68995;SDS011;56056;48.990;12.146;2023-03-15T05:44:57;259.33;;;247.93;;
68995;SDS011;56056;48.990;12.146;2023-03-15T05:47:23;136.10;;;129.93;;
68995;SDS011;56056;48.990;12.146;2023-03-15T05:49:49;133.88;;;128.20;;
68995;SDS011;56056;48.990;12.146;2023-03-15T05:52:14;83.43;;;79.78;;
68995;SDS011;56056;48.990;12.146;2023-03-15T05:54:41;82.60;;;78.45;;
68995;SDS011;56056;48.990;12.146;2023-03-15T05:57:07;178.57;;;170.20;;
68995;SDS011;56056;48.990;12.146;2023-03-15T05:59:33;124.03;;;119.07;;
68995;SDS011;56056;48.990;12.146;2023-03-15T06:01:59;211.23;;;201.00;;
68995;SDS011;56056;48.990;12.146;2023-03-15T06:04:24;223.80;;;214.23;;
68995;SDS011;56056;48.990;12.146;2023-03-15T06:06:50;97.25;;;92.80;;
68995;SDS011;56056;48.990;12.146;2023-03-15T06:09:16;280.43;;;268.33;;
68995;SDS011;56056;48.990;12.146;2023-03-15T06:11:43;143.75;;;136.95;;
68995;SDS011;56056;48.990;12.146;2023-03-15T06:14:09;137.93;;;131.10;;
68995;SDS011;56056;48.990;12.146;2023-03-15T06:16:35;134.20;;;128.17;;
68995;SDS011;56056;48.990;12.146;2023-03-15T06:19:01;85.60;;;81.78;;
68995;SDS011;56056;48.990;12.146;2023-03-15T06:21:27;84.57;;;80.80;;
68995;SDS011;56056;48.990;12.146;2023-03-15T06:23:52;93.33;;;89.07;;
68995;SDS011;56056;48.990;12.146;2023-03-15T06:26:18;166.57;;;159.38;;
68995;SDS011;56056;48.990;12.146;2023-03-15T06:28:45;346.63;;;327.83;;
68995;SDS011;56056;48.990;12.146;2023-03-15T06:31:12;69.03;;;65.25;;
68995;SDS011;56056;48.990;12.146;2023-03-15T06:33:38;408.43;;;388.33;;
68995;SDS011;56056;48.990;12.146;2023-03-15T06:36:03;39.20;;;37.60;;
68995;SDS011;56056;48.990;12.146;2023-03-15T06:38:30;79.30;;;75.95;;
68995;SDS011;56056;48.990;12.146;2023-03-15T06:40:56;50.33;;;48.10;;
68995;SDS011;56056;48.990;12.146;2023-03-15T06:43:23;54.63;;;51.78;;
68995;SDS011;56056;48.990;12.146;2023-03-15T06:45:50;175.13;;;166.83;;
68995;SDS011;56056;48.990;12.146;2023-03-15T06:48:17;47.43;;;44.13;;
68995;SDS011;56056;48.990;12.146;2023-03-15T06:50:43;46.83;;;44.53;;
68995;SDS011;56056;48.990;12.146;2023-03-15T06:53:08;88.43;;;84.63;;
68995;SDS011;56056;48.990;12.146;2023-03-15T06:55:34;140.87;;;132.67;;
68995;SDS011;56056;48.990;12.146;2023-03-15T06:58:00;178.05;;;169.65;;
68995;SDS011;56056;48.990;12.146;2023-03-15T07:00:25;271.40;;;259.40;;
68995;SDS011;56056;48.990;12.146;2023-03-15T07:02:53;238.75;;;227.77;;
68995;SDS011;56056;48.990;12.146;2023-03-15T07:05:18;182.43;;;174.00;;
68995;SDS011;56056;48.990;12.146;2023-03-15T07:07:44;245.75;;;233.35;;
68995;SDS011;56056;48.990;12.146;2023-03-15T07:10:10;120.38;;;114.88;;
68995;SDS011;56056;48.990;12.146;2023-03-15T07:12:35;275.30;;;262.42;;
68995;SDS011;56056;48.990;12.146;2023-03-15T07:15:01;449.63;;;427.30;;
68995;SDS011;56056;48.990;12.146;2023-03-15T07:17:27;299.85;;;284.70;;
68995;SDS011;56056;48.990;12.146;2023-03-15T07:19:54;252.68;;;240.25;;
68995;SDS011;56056;48.990;12.146;2023-03-15T07:22:19;177.35;;;168.40;;
68995;SDS011;56056;48.990;12.146;2023-03-15T07:24:46;235.45;;;223.75;;
68995;SDS011;56056;48.990;12.146;2023-03-15T07:27:12;467.63;;;441.35;;
68995;SDS011;56056;48.990;12.146;2023-03-15T07:29:38;171.25;;;163.07;;
68995;SDS011;56056;48.990;12.146;2023-03-15T07:32:04;287.13;;;273.23;;
68995;SDS011;56056;48.990;12.146;2023-03-15T07:34:30;354.80;;;336.02;;
68995;SDS011;56056;48.990;12.146;2023-03-15T07:36:56;370.73;;;352.30;;
68995;SDS011;56056;48.990;12.146;2023-03-15T07:39:22;151.38;;;143.10;;
68995;SDS011;56056;48.990;12.146;2023-03-15T07:41:49;95.72;;;91.18;;
68995;SDS011;56056;48.990;12.146;2023-03-15T07:44:15;273.88;;;259.95;;
68995;SDS011;56056;48.990;12.146;2023-03-15T07:46:41;129.45;;;122.82;;
68995;SDS011;56056;48.990;12.146;2023-03-15T07:49:07;158.05;;;149.48;;
68995;SDS011;56056;48.990;12.146;2023-03-15T07:51:32;169.90;;;160.70;;
68995;SDS011;56056;48.990;12.146;2023-03-15T07:53:59;191.05;;;181.13;;
68995;SDS011;56056;48.990;12.146;2023-03-15T07:56:25;93.10;;;88.63;;
68995;SDS011;56056;48.990;12.146;2023-03-15T07:58:50;200.65;;;190.48;;
68995;SDS011;56056;48.990;12.146;2023-03-15T08:01:16;142.48;;;134.13;;
68995;SDS011;56056;48.990;12.146;2023-03-15T08:03:42;155.80;;;148.13;;
68995;SDS011;56056;48.990;12.146;2023-03-15T08:06:07;180.40;;;170.70;;
68995;SDS011;56056;48.990;12.146;2023-03-15T08:08:33;33.55;;;31.98;;
68995;SDS011;56056;48.990;12.146;2023-03-15T08:11:00;564.97;;;513.22;;
68995;SDS011;56056;48.990;12.146;2023-03-15T08:13:25;316.48;;;296.33;;
68995;SDS011;56056;48.990;12.146;2023-03-15T08:15:51;392.65;;;367.42;;
68995;SDS011;56056;48.990;12.146;2023-03-15T08:18:17;627.30;;;587.53;;
68995;SDS011;56056;48.990;12.146;2023-03-15T08:20:42;808.80;;;755.85;;
68995;SDS011;56056;48.990;12.146;2023-03-15T08:23:08;815.90;;;754.97;;
68995;SDS011;56056;48.990;12.146;2023-03-15T08:25:34;797.45;;;736.50;;
68995;SDS011;56056;48.990;12.146;2023-03-15T08:28:05;1096.45;;;999.70;;
68995;SDS011;56056;48.990;12.146;2023-03-15T08:30:31;1148.50;;;999.90;;
68995;SDS011;56056;48.990;12.146;2023-03-15T08:32:57;1119.97;;;999.90;;
68995;SDS011;56056;48.990;12.146;2023-03-15T08:35:22;1116.07;;;996.00;;
68995;SDS011;56056;48.990;12.146;2023-03-15T08:37:49;1145.47;;;999.90;;
68995;SDS011;56056;48.990;12.146;2023-03-15T08:40:17;1229.53;;;999.90;;
68995;SDS011;56056;48.990;12.146;2023-03-15T08:42:49;1192.75;;;999.90;;
68995;SDS011;56056;48.990;12.146;2023-03-15T08:45:17;1096.65;;;996.45;;
68995;SDS011;56056;48.990;12.146;2023-03-15T08:47:43;1137.03;;;999.90;;
68995;SDS011;56056;48.990;12.146;2023-03-15T08:50:10;1168.78;;;999.90;;
68995;SDS011;56056;48.990;12.146;2023-03-15T08:52:36;1179.68;;;999.90;;
68995;SDS011;56056;48.990;12.146;2023-03-15T08:55:02;1171.03;;;999.90;;
68995;SDS011;56056;48.990;12.146;2023-03-15T08:57:28;1155.75;;;999.90;;
68995;SDS011;56056;48.990;12.146;2023-03-15T08:59:56;1192.53;;;999.90;;
68995;SDS011;56056;48.990;12.146;2023-03-15T09:02:24;1181.40;;;999.90;;
68995;SDS011;56056;48.990;12.146;2023-03-15T09:04:49;1228.72;;;999.90;;
68995;SDS011;56056;48.990;12.146;2023-03-15T09:07:15;1228.32;;;999.90;;
68995;SDS011;56056;48.990;12.146;2023-03-15T09:09:41;1059.85;;;940.33;;
68995;SDS011;56056;48.990;12.146;2023-03-15T09:12:12;1182.78;;;999.90;;
68995;SDS011;56056;48.990;12.146;2023-03-15T09:14:38;1185.60;;;999.90;;
68995;SDS011;56056;48.990;12.146;2023-03-15T09:17:04;1308.72;;;999.90;;
68995;SDS011;56056;48.990;12.146;2023-03-15T09:19:31;1543.90;;;999.90;;
68995;SDS011;56056;48.990;12.146;2023-03-15T09:21:56;1291.65;;;999.90;;
68995;SDS011;56056;48.990;12.146;2023-03-15T09:24:22;1189.47;;;999.90;;
68995;SDS011;56056;48.990;12.146;2023-03-15T09:26:48;1726.63;;;999.90;;
68995;SDS011;56056;48.990;12.146;2023-03-15T09:29:13;1282.68;;;999.90;;
68995;SDS011;56056;48.990;12.146;2023-03-15T09:31:39;1198.00;;;999.90;;
68995;SDS011;56056;48.990;12.146;2023-03-15T09:34:05;1181.25;;;997.08;;
68995;SDS011;56056;48.990;12.146;2023-03-15T09:36:33;1289.55;;;999.90;;
68995;SDS011;56056;48.990;12.146;2023-03-15T09:38:59;1403.65;;;999.90;;
68995;SDS011;56056;48.990;12.146;2023-03-15T09:41:31;1684.88;;;999.90;;
68995;SDS011;56056;48.990;12.146;2023-03-15T09:44:08;1485.53;;;999.90;;
68995;SDS011;56056;48.990;12.146;2023-03-15T09:46:38;1387.60;;;999.90;;
68995;SDS011;56056;48.990;12.146;2023-03-15T09:49:08;1504.45;;;999.90;;
68995;SDS011;56056;48.990;12.146;2023-03-15T09:51:41;1474.35;;;999.90;;
68995;SDS011;56056;48.990;12.146;2023-03-15T09:54:12;1706.72;;;999.90;;
68995;SDS011;56056;48.990;12.146;2023-03-15T09:56:41;1164.15;;;999.90;;
68995;SDS011;56056;48.990;12.146;2023-03-15T09:59:10;1137.72;;;999.90;;
68995;SDS011;56056;48.990;12.146;2023-03-15T10:01:36;1138.97;;;999.90;;
68995;SDS011;56056;48.990;12.146;2023-03-15T10:04:04;1052.35;;;957.47;;
68995;SDS011;56056;48.990;12.146;2023-03-15T10:06:35;925.10;;;839.10;;
68995;SDS011;56056;48.990;12.146;2023-03-15T10:09:05;1102.90;;;988.33;;
68995;SDS011;56056;48.990;12.146;2023-03-15T10:11:36;866.47;;;788.80;;
68995;SDS011;56056;48.990;12.146;2023-03-15T10:14:11;742.33;;;666.90;;
68995;SDS011;56056;48.990;12.146;2023-03-15T10:16:43;1223.57;;;999.90;;
68995;SDS011;56056;48.990;12.146;2023-03-15T10:19:12;1130.03;;;999.90;;
68995;SDS011;56056;48.990;12.146;2023-03-15T10:21:46;949.47;;;872.65;;
68995;SDS011;56056;48.990;12.146;2023-03-15T10:24:18;930.97;;;844.17;;
68995;SDS011;56056;48.990;12.146;2023-03-15T10:26:45;1088.50;;;985.22;;
68995;SDS011;56056;48.990;12.146;2023-03-15T10:29:13;1128.25;;;997.15;;
68995;SDS011;56056;48.990;12.146;2023-03-15T10:31:40;1107.05;;;983.63;;
68995;SDS011;56056;48.990;12.146;2023-03-15T10:34:10;1132.65;;;998.85;;
68995;SDS011;56056;48.990;12.146;2023-03-15T10:36:36;1562.72;;;999.90;;
68995;SDS011;56056;48.990;12.146;2023-03-15T10:39:02;1557.32;;;999.90;;
68995;SDS011;56056;48.990;12.146;2023-03-15T10:41:36;1720.90;;;999.90;;
68995;SDS011;56056;48.990;12.146;2023-03-15T10:44:04;1446.68;;;999.90;;
68995;SDS011;56056;48.990;12.146;2023-03-15T10:46:30;1129.45;;;891.55;;
68995;SDS011;56056;48.990;12.146;2023-03-15T10:48:57;1067.65;;;970.05;;
68995;SDS011;56056;48.990;12.146;2023-03-15T10:51:24;869.95;;;789.28;;
68995;SDS011;56056;48.990;12.146;2023-03-15T10:53:52;1129.57;;;999.90;;
68995;SDS011;56056;48.990;12.146;2023-03-15T10:56:21;996.53;;;909.58;;
68995;SDS011;56056;48.990;12.146;2023-03-15T10:58:51;1065.93;;;960.22;;
68995;SDS011;56056;48.990;12.146;2023-03-15T11:01:21;1129.93;;;999.90;;
68995;SDS011;56056;48.990;12.146;2023-03-15T11:03:52;1441.40;;;999.90;;
68995;SDS011;56056;48.990;12.146;2023-03-15T11:06:25;1378.03;;;999.90;;
68995;SDS011;56056;48.990;12.146;2023-03-15T11:08:53;1962.85;;;999.90;;
68995;SDS011;56056;48.990;12.146;2023-03-15T11:11:37;1788.38;;;999.90;;
68995;SDS011;56056;48.990;12.146;2023-03-15T11:14:18;1785.53;;;999.90;;
68995;SDS011;56056;48.990;12.146;2023-03-15T11:16:45;1387.40;;;999.90;;
68995;SDS011;56056;48.990;12.146;2023-03-15T11:19:14;1215.97;;;999.90;;
68995;SDS011;56056;48.990;12.146;2023-03-15T11:21:41;1202.70;;;999.90;;
68995;SDS011;56056;48.990;12.146;2023-03-15T11:24:22;1108.07;;;996.80;;
68995;SDS011;56056;48.990;12.146;2023-03-15T11:26:49;885.55;;;797.92;;
68995;SDS011;56056;48.990;12.146;2023-03-15T11:29:20;1042.25;;;867.03;;
68995;SDS011;56056;48.990;12.146;2023-03-15T11:31:48;1002.75;;;904.15;;
68995;SDS011;56056;48.990;12.146;2023-03-15T11:34:16;1161.68;;;999.90;;
68995;SDS011;56056;48.990;12.146;2023-03-15T11:36:50;1226.63;;;999.90;;
68995;SDS011;56056;48.990;12.146;2023-03-15T11:39:31;1160.15;;;999.90;;
68995;SDS011;56056;48.990;12.146;2023-03-15T11:42:01;1198.18;;;999.90;;
68995;SDS011;56056;48.990;12.146;2023-03-15T11:44:32;1135.57;;;999.90;;
68995;SDS011;56056;48.990;12.146;2023-03-15T11:47:03;1108.50;;;999.90;;
68995;SDS011;56056;48.990;12.146;2023-03-15T11:49:34;1112.25;;;997.72;;
68995;SDS011;56056;48.990;12.146;2023-03-15T11:52:02;1127.28;;;975.70;;
68995;SDS011;56056;48.990;12.146;2023-03-15T11:54:28;1104.32;;;999.50;;
68995;SDS011;56056;48.990;12.146;2023-03-15T11:56:55;938.90;;;860.60;;
68995;SDS011;56056;48.990;12.146;2023-03-15T11:59:26;792.05;;;724.97;;
68995;SDS011;56056;48.990;12.146;2023-03-15T12:01:55;943.15;;;859.33;;
68995;SDS011;56056;48.990;12.146;2023-03-15T12:04:37;1231.03;;;999.90;;
68995;SDS011;56056;48.990;12.146;2023-03-15T12:07:22;1153.60;;;999.90;;
68995;SDS011;56056;48.990;12.146;2023-03-15T12:09:53;1181.78;;;999.90;;
68995;SDS011;56056;48.990;12.146;2023-03-15T12:12:42;1407.68;;;999.90;;
68995;SDS011;56056;48.990;12.146;2023-03-15T12:18:12;1219.70;;;999.90;;
68995;SDS011;56056;48.990;12.146;2023-03-15T12:20:41;1257.90;;;999.90;;
68995;SDS011;56056;48.990;12.146;2023-03-15T12:23:15;1357.00;;;999.90;;
68995;SDS011;56056;48.990;12.146;2023-03-15T12:25:54;1309.97;;;999.90;;
68995;SDS011;56056;48.990;12.146;2023-03-15T12:28:21;1202.28;;;999.90;;
68995;SDS011;56056;48.990;12.146;2023-03-15T12:30:51;1226.97;;;999.90;;
68995;SDS011;56056;48.990;12.146;2023-03-15T12:33:21;1013.30;;;921.05;;
68995;SDS011;56056;48.990;12.146;2023-03-15T12:35:47;1047.45;;;948.13;;
68995;SDS011;56056;48.990;12.146;2023-03-15T12:38:14;1068.45;;;971.10;;
68995;SDS011;56056;48.990;12.146;2023-03-15T12:40:49;1046.07;;;945.83;;
68995;SDS011;56056;48.990;12.146;2023-03-15T12:46:01;1045.38;;;931.05;;
68995;SDS011;56056;48.990;12.146;2023-03-15T12:48:29;1054.00;;;952.33;;
68995;SDS011;56056;48.990;12.146;2023-03-15T12:50:56;986.33;;;886.35;;
68995;SDS011;56056;48.990;12.146;2023-03-15T12:53:27;1001.33;;;910.47;;
68995;SDS011;56056;48.990;12.146;2023-03-15T12:56:15;1046.90;;;947.15;;
68995;SDS011;56056;48.990;12.146;2023-03-15T12:58:58;1186.38;;;999.90;;
68995;SDS011;56056;48.990;12.146;2023-03-15T13:01:28;1125.82;;;988.75;;
68995;SDS011;56056;48.990;12.146;2023-03-15T13:03:56;1206.75;;;999.90;;
68995;SDS011;56056;48.990;12.146;2023-03-15T13:06:27;1166.22;;;999.90;;
68995;SDS011;56056;48.990;12.146;2023-03-15T13:09:08;1197.05;;;999.90;;
68995;SDS011;56056;48.990;12.146;2023-03-15T13:11:39;1187.18;;;862.97;;
68995;SDS011;56056;48.990;12.146;2023-03-15T13:14:22;1265.25;;;971.25;;
68995;SDS011;56056;48.990;12.146;2023-03-15T13:16:55;1132.57;;;954.42;;
68995;SDS011;56056;48.990;12.146;2023-03-15T13:19:26;1279.93;;;999.90;;
68995;SDS011;56056;48.990;12.146;2023-03-15T13:21:57;898.72;;;658.63;;
68995;SDS011;56056;48.990;12.146;2023-03-15T13:24:29;1216.78;;;871.42;;
68995;SDS011;56056;48.990;12.146;2023-03-15T13:27:00;1611.38;;;999.90;;
68995;SDS011;56056;48.990;12.146;2023-03-15T13:29:29;1456.00;;;999.90;;
68995;SDS011;56056;48.990;12.146;2023-03-15T13:31:59;1688.95;;;999.90;;
68995;SDS011;56056;48.990;12.146;2023-03-15T13:34:27;1394.90;;;999.90;;
68995;SDS011;56056;48.990;12.146;2023-03-15T13:36:55;1344.47;;;999.90;;
68995;SDS011;56056;48.990;12.146;2023-03-15T13:39:23;1437.82;;;999.90;;
68995;SDS011;56056;48.990;12.146;2023-03-15T13:41:55;1465.15;;;999.90;;
68995;SDS011;56056;48.990;12.146;2023-03-15T13:44:22;1364.40;;;999.90;;
68995;SDS011;56056;48.990;12.146;2023-03-15T13:46:49;1300.60;;;999.90;;
68995;SDS011;56056;48.990;12.146;2023-03-15T13:49:16;1231.45;;;999.90;;
68995;SDS011;56056;48.990;12.146;2023-03-15T13:51:43;1179.05;;;999.90;;
68995;SDS011;56056;48.990;12.146;2023-03-15T13:54:12;1475.32;;;999.90;;